sensor_id;sensor_type;location;lat;lon;timestamp;P1;durP1;ratioP1;P2;durP2;ratioP2
69706;SDS011;56975;55.726;37.566;2024-01-30T00:00:00;15.2;;;8.4;;
69706;SDS011;56975;55.726;37.566;2024-01-30T00:05:03;11.9;;;6.0;;
69706;SDS011;56975;55.726;37.566;2024-01-30T00:10:00;12.5;;;6.1;;
69706;SDS011;56975;55.726;37.566;2024-01-30T00:15:00;10.7;;;5.9;;
69706;SDS011;56975;55.726;37.566;2024-01-30T00:20:00;9.4;;;5.2;;
69706;SDS011;56975;55.726;37.566;2024-01-30T00:25:00;10.2;;;5.1;;
69706;SDS011;56975;55.726;37.566;2024-01-30T00:30:00;9.6;;;5.4;;
69706;SDS011;56975;55.726;37.566;2024-01-30T00:35:00;11.3;;;6.6;;
69706;SDS011;56975;55.726;37.566;2024-01-30T00:40:00;11.7;;;6.3;;
69706;SDS011;56975;55.726;37.566;2024-01-30T00:45:00;13.9;;;6.5;;
69706;SDS011;56975;55.726;37.566;2024-01-30T00:50:00;9.5;;;5.2;;
69706;SDS011;56975;55.726;37.566;2024-01-30T00:55:00;9.7;;;5.7;;
69706;SDS011;56975;55.726;37.566;2024-01-30T01:00:00;10.1;;;5.2;;
69706;SDS011;56975;55.726;37.566;2024-01-30T01:05:02;14.2;;;6.4;;
69706;SDS011;56975;55.726;37.566;2024-01-30T01:10:00;10.7;;;6.3;;
69706;SDS011;56975;55.726;37.566;2024-01-30T01:15:00;11.7;;;5.6;;
69706;SDS011;56975;55.726;37.566;2024-01-30T01:20:00;12.2;;;5.8;;
69706;SDS011;56975;55.726;37.566;2024-01-30T01:25:00;10.9;;;6.2;;
69706;SDS011;56975;55.726;37.566;2024-01-30T01:30:00;9.9;;;5.9;;
69706;SDS011;56975;55.726;37.566;2024-01-30T01:35:00;13.9;;;6.1;;
69706;SDS011;56975;55.726;37.566;2024-01-30T01:40:00;13.2;;;5.5;;
69706;SDS011;56975;55.726;37.566;2024-01-30T01:45:00;10.0;;;4.8;;
69706;SDS011;56975;55.726;37.566;2024-01-30T01:50:00;11.5;;;6.4;;
69706;SDS011;56975;55.726;37.566;2024-01-30T02:00:00;11.6;;;5.6;;
69706;SDS011;56975;55.726;37.566;2024-01-30T02:05:00;10.4;;;5.1;;
69706;SDS011;56975;55.726;37.566;2024-01-30T02:10:00;10.5;;;5.6;;
69706;SDS011;56975;55.726;37.566;2024-01-30T02:15:00;11.8;;;6.1;;
69706;SDS011;56975;55.726;37.566;2024-01-30T02:20:05;10.6;;;6.1;;
69706;SDS011;56975;55.726;37.566;2024-01-30T02:25:00;11.6;;;6.0;;
69706;SDS011;56975;55.726;37.566;2024-01-30T02:30:00;12.9;;;7.0;;
69706;SDS011;56975;55.726;37.566;2024-01-30T02:35:00;12.1;;;6.0;;
69706;SDS011;56975;55.726;37.566;2024-01-30T02:40:00;8.9;;;5.3;;
69706;SDS011;56975;55.726;37.566;2024-01-30T02:45:00;11.5;;;6.6;;
69706;SDS011;56975;55.726;37.566;2024-01-30T02:50:00;12.1;;;6.0;;
69706;SDS011;56975;55.726;37.566;2024-01-30T02:55:00;11.3;;;6.4;;
69706;SDS011;56975;55.726;37.566;2024-01-30T03:00:00;9.5;;;5.1;;
69706;SDS011;56975;55.726;37.566;2024-01-30T03:05:00;11.1;;;5.9;;
69706;SDS011;56975;55.726;37.566;2024-01-30T03:10:00;10.9;;;5.8;;
69706;SDS011;56975;55.726;37.566;2024-01-30T03:15:00;10.4;;;6.1;;
69706;SDS011;56975;55.726;37.566;2024-01-30T03:20:05;12.8;;;6.9;;
69706;SDS011;56975;55.726;37.566;2024-01-30T03:25:00;11.2;;;6.5;;
69706;SDS011;56975;55.726;37.566;2024-01-30T03:30:00;9.9;;;5.7;;
69706;SDS011;56975;55.726;37.566;2024-01-30T03:35:00;11.4;;;6.7;;
69706;SDS011;56975;55.726;37.566;2024-01-30T03:40:00;10.3;;;6.0;;
69706;SDS011;56975;55.726;37.566;2024-01-30T03:45:00;11.4;;;6.6;;
69706;SDS011;56975;55.726;37.566;2024-01-30T03:50:00;15.7;;;6.8;;
69706;SDS011;56975;55.726;37.566;2024-01-30T03:55:00;8.9;;;5.3;;
69706;SDS011;56975;55.726;37.566;2024-01-30T04:00:00;10.6;;;6.2;;
69706;SDS011;56975;55.726;37.566;2024-01-30T04:05:00;9.8;;;5.8;;
69706;SDS011;56975;55.726;37.566;2024-01-30T04:10:03;8.6;;;4.7;;
69706;SDS011;56975;55.726;37.566;2024-01-30T04:15:00;10.9;;;5.6;;
69706;SDS011;56975;55.726;37.566;2024-01-30T04:20:00;13.5;;;6.1;;
69706;SDS011;56975;55.726;37.566;2024-01-30T04:25:01;10.2;;;5.6;;
69706;SDS011;56975;55.726;37.566;2024-01-30T04:30:00;10.1;;;4.8;;
69706;SDS011;56975;55.726;37.566;2024-01-30T04:35:00;9.6;;;5.5;;
69706;SDS011;56975;55.726;37.566;2024-01-30T04:40:00;12.5;;;6.4;;
69706;SDS011;56975;55.726;37.566;2024-01-30T04:45:00;9.9;;;5.2;;
69706;SDS011;56975;55.726;37.566;2024-01-30T04:50:00;14.2;;;6.9;;
69706;SDS011;56975;55.726;37.566;2024-01-30T04:55:00;8.2;;;5.0;;
69706;SDS011;56975;55.726;37.566;2024-01-30T05:00:00;11.3;;;5.3;;
69706;SDS011;56975;55.726;37.566;2024-01-30T05:05:00;10.6;;;5.4;;
69706;SDS011;56975;55.726;37.566;2024-01-30T05:10:00;11.2;;;6.2;;
69706;SDS011;56975;55.726;37.566;2024-01-30T05:15:00;14.3;;;6.8;;
69706;SDS011;56975;55.726;37.566;2024-01-30T05:25:00;14.9;;;6.3;;
69706;SDS011;56975;55.726;37.566;2024-01-30T05:35:00;8.9;;;5.2;;
69706;SDS011;56975;55.726;37.566;2024-01-30T05:45:00;11.7;;;6.3;;
69706;SDS011;56975;55.726;37.566;2024-01-30T05:50:00;12.0;;;6.4;;
69706;SDS011;56975;55.726;37.566;2024-01-30T05:55:00;11.3;;;6.6;;
69706;SDS011;56975;55.726;37.566;2024-01-30T06:00:00;10.8;;;5.4;;
69706;SDS011;56975;55.726;37.566;2024-01-30T06:05:00;17.3;;;8.5;;
69706;SDS011;56975;55.726;37.566;2024-01-30T06:15:00;20.1;;;7.5;;
69706;SDS011;56975;55.726;37.566;2024-01-30T06:20:00;13.1;;;6.6;;
69706;SDS011;56975;55.726;37.566;2024-01-30T06:30:00;18.1;;;9.0;;
69706;SDS011;56975;55.726;37.566;2024-01-30T06:35:00;12.4;;;6.7;;
69706;SDS011;56975;55.726;37.566;2024-01-30T06:40:00;17.0;;;9.1;;
69706;SDS011;56975;55.726;37.566;2024-01-30T06:45:00;16.3;;;8.2;;
69706;SDS011;56975;55.726;37.566;2024-01-30T06:50:00;18.1;;;9.7;;
69706;SDS011;56975;55.726;37.566;2024-01-30T07:00:00;13.8;;;7.3;;
69706;SDS011;56975;55.726;37.566;2024-01-30T07:05:00;22.1;;;8.8;;
69706;SDS011;56975;55.726;37.566;2024-01-30T07:10:00;15.2;;;7.6;;
69706;SDS011;56975;55.726;37.566;2024-01-30T07:15:00;23.2;;;10.3;;
69706;SDS011;56975;55.726;37.566;2024-01-30T07:20:00;18.1;;;8.4;;
69706;SDS011;56975;55.726;37.566;2024-01-30T07:25:00;22.1;;;8.7;;
69706;SDS011;56975;55.726;37.566;2024-01-30T07:30:00;20.3;;;10.5;;
69706;SDS011;56975;55.726;37.566;2024-01-30T07:35:00;19.5;;;9.1;;
69706;SDS011;56975;55.726;37.566;2024-01-30T07:40:00;23.0;;;8.7;;
69706;SDS011;56975;55.726;37.566;2024-01-30T07:45:00;18.6;;;9.1;;
69706;SDS011;56975;55.726;37.566;2024-01-30T07:50:00;21.2;;;9.5;;
69706;SDS011;56975;55.726;37.566;2024-01-30T08:00:00;14.2;;;6.6;;
69706;SDS011;56975;55.726;37.566;2024-01-30T08:05:00;16.5;;;7.0;;
69706;SDS011;56975;55.726;37.566;2024-01-30T08:10:00;16.1;;;8.3;;
69706;SDS011;56975;55.726;37.566;2024-01-30T08:15:00;18.1;;;8.2;;
69706;SDS011;56975;55.726;37.566;2024-01-30T08:20:00;19.3;;;10.3;;
69706;SDS011;56975;55.726;37.566;2024-01-30T08:25:00;14.8;;;6.6;;
69706;SDS011;56975;55.726;37.566;2024-01-30T08:30:00;16.6;;;8.4;;
69706;SDS011;56975;55.726;37.566;2024-01-30T08:35:00;21.8;;;8.6;;
69706;SDS011;56975;55.726;37.566;2024-01-30T08:40:00;19.5;;;8.1;;
69706;SDS011;56975;55.726;37.566;2024-01-30T08:45:00;17.1;;;8.9;;
69706;SDS011;56975;55.726;37.566;2024-01-30T08:55:00;21.4;;;9.9;;
69706;SDS011;56975;55.726;37.566;2024-01-30T09:00:00;17.1;;;8.2;;
69706;SDS011;56975;55.726;37.566;2024-01-30T09:05:00;22.2;;;11.3;;
69706;SDS011;56975;55.726;37.566;2024-01-30T09:15:00;20.4;;;8.8;;
69706;SDS011;56975;55.726;37.566;2024-01-30T09:20:00;24.5;;;10.7;;
69706;SDS011;56975;55.726;37.566;2024-01-30T09:25:00;21.6;;;9.9;;
69706;SDS011;56975;55.726;37.566;2024-01-30T09:30:00;13.4;;;6.6;;
69706;SDS011;56975;55.726;37.566;2024-01-30T09:35:00;16.4;;;8.1;;
69706;SDS011;56975;55.726;37.566;2024-01-30T09:40:00;24.7;;;10.4;;
69706;SDS011;56975;55.726;37.566;2024-01-30T09:45:00;14.0;;;7.7;;
69706;SDS011;56975;55.726;37.566;2024-01-30T09:50:00;18.8;;;9.7;;
69706;SDS011;56975;55.726;37.566;2024-01-30T09:55:00;24.1;;;10.6;;
69706;SDS011;56975;55.726;37.566;2024-01-30T10:00:00;22.5;;;11.0;;
69706;SDS011;56975;55.726;37.566;2024-01-30T10:05:00;22.9;;;11.5;;
69706;SDS011;56975;55.726;37.566;2024-01-30T10:10:00;21.8;;;10.8;;
69706;SDS011;56975;55.726;37.566;2024-01-30T10:15:00;16.4;;;8.5;;
69706;SDS011;56975;55.726;37.566;2024-01-30T10:20:00;24.5;;;9.5;;
69706;SDS011;56975;55.726;37.566;2024-01-30T10:25:00;21.6;;;9.5;;
69706;SDS011;56975;55.726;37.566;2024-01-30T10:30:00;17.9;;;9.2;;
69706;SDS011;56975;55.726;37.566;2024-01-30T10:35:00;18.2;;;7.5;;
69706;SDS011;56975;55.726;37.566;2024-01-30T10:40:01;27.9;;;10.8;;
69706;SDS011;56975;55.726;37.566;2024-01-30T10:45:02;23.3;;;10.5;;
69706;SDS011;56975;55.726;37.566;2024-01-30T10:50:00;28.2;;;11.5;;
69706;SDS011;56975;55.726;37.566;2024-01-30T10:55:00;22.2;;;10.2;;
69706;SDS011;56975;55.726;37.566;2024-01-30T11:00:00;16.8;;;7.4;;
69706;SDS011;56975;55.726;37.566;2024-01-30T11:10:00;23.3;;;8.8;;
69706;SDS011;56975;55.726;37.566;2024-01-30T11:15:01;18.3;;;9.3;;
69706;SDS011;56975;55.726;37.566;2024-01-30T11:20:00;24.4;;;9.4;;
69706;SDS011;56975;55.726;37.566;2024-01-30T11:25:00;19.9;;;10.1;;
69706;SDS011;56975;55.726;37.566;2024-01-30T11:40:00;21.7;;;10.9;;
69706;SDS011;56975;55.726;37.566;2024-01-30T11:45:00;23.3;;;10.6;;
69706;SDS011;56975;55.726;37.566;2024-01-30T11:50:00;20.7;;;9.7;;
69706;SDS011;56975;55.726;37.566;2024-01-30T11:55:00;27.1;;;11.8;;
69706;SDS011;56975;55.726;37.566;2024-01-30T12:00:00;24.0;;;9.7;;
69706;SDS011;56975;55.726;37.566;2024-01-30T12:05:02;18.4;;;8.3;;
69706;SDS011;56975;55.726;37.566;2024-01-30T12:10:00;16.0;;;7.7;;
69706;SDS011;56975;55.726;37.566;2024-01-30T12:15:00;18.0;;;8.8;;
69706;SDS011;56975;55.726;37.566;2024-01-30T12:20:03;18.3;;;9.1;;
69706;SDS011;56975;55.726;37.566;2024-01-30T12:25:00;20.6;;;9.0;;
69706;SDS011;56975;55.726;37.566;2024-01-30T12:30:00;22.4;;;10.2;;
69706;SDS011;56975;55.726;37.566;2024-01-30T12:35:00;25.9;;;10.2;;
69706;SDS011;56975;55.726;37.566;2024-01-30T12:40:00;22.9;;;10.1;;
69706;SDS011;56975;55.726;37.566;2024-01-30T12:50:00;22.5;;;10.4;;
69706;SDS011;56975;55.726;37.566;2024-01-30T12:55:00;18.7;;;8.5;;
69706;SDS011;56975;55.726;37.566;2024-01-30T13:00:00;30.0;;;11.1;;
69706;SDS011;56975;55.726;37.566;2024-01-30T13:05:00;21.7;;;11.8;;
69706;SDS011;56975;55.726;37.566;2024-01-30T13:10:00;23.5;;;11.1;;
69706;SDS011;56975;55.726;37.566;2024-01-30T13:25:05;21.7;;;10.5;;
69706;SDS011;56975;55.726;37.566;2024-01-30T13:30:00;19.0;;;9.2;;
69706;SDS011;56975;55.726;37.566;2024-01-30T13:35:00;17.9;;;8.8;;
69706;SDS011;56975;55.726;37.566;2024-01-30T13:40:00;23.1;;;10.2;;
69706;SDS011;56975;55.726;37.566;2024-01-30T13:45:00;18.7;;;9.8;;
69706;SDS011;56975;55.726;37.566;2024-01-30T13:50:00;23.1;;;11.4;;
69706;SDS011;56975;55.726;37.566;2024-01-30T14:05:00;29.5;;;9.4;;
69706;SDS011;56975;55.726;37.566;2024-01-30T14:15:00;22.1;;;10.1;;
69706;SDS011;56975;55.726;37.566;2024-01-30T14:20:00;25.6;;;11.0;;
69706;SDS011;56975;55.726;37.566;2024-01-30T14:40:00;22.0;;;11.2;;
69706;SDS011;56975;55.726;37.566;2024-01-30T14:45:00;19.4;;;8.1;;
69706;SDS011;56975;55.726;37.566;2024-01-30T14:50:00;21.8;;;10.2;;
69706;SDS011;56975;55.726;37.566;2024-01-30T14:55:00;22.9;;;11.2;;
69706;SDS011;56975;55.726;37.566;2024-01-30T15:00:00;28.8;;;11.0;;
69706;SDS011;56975;55.726;37.566;2024-01-30T15:05:00;24.1;;;11.0;;
69706;SDS011;56975;55.726;37.566;2024-01-30T15:10:01;20.6;;;10.0;;
69706;SDS011;56975;55.726;37.566;2024-01-30T15:15:00;33.3;;;13.1;;
69706;SDS011;56975;55.726;37.566;2024-01-30T15:20:00;17.0;;;8.3;;
69706;SDS011;56975;55.726;37.566;2024-01-30T15:25:00;29.6;;;13.4;;
69706;SDS011;56975;55.726;37.566;2024-01-30T15:30:00;23.1;;;10.7;;
69706;SDS011;56975;55.726;37.566;2024-01-30T15:35:00;21.5;;;11.6;;
69706;SDS011;56975;55.726;37.566;2024-01-30T15:40:00;21.5;;;9.4;;
69706;SDS011;56975;55.726;37.566;2024-01-30T15:45:00;25.6;;;10.0;;
69706;SDS011;56975;55.726;37.566;2024-01-30T15:50:07;25.2;;;10.7;;
69706;SDS011;56975;55.726;37.566;2024-01-30T15:55:00;24.5;;;10.2;;
69706;SDS011;56975;55.726;37.566;2024-01-30T16:00:00;28.9;;;12.6;;
69706;SDS011;56975;55.726;37.566;2024-01-30T16:05:00;28.9;;;12.7;;
69706;SDS011;56975;55.726;37.566;2024-01-30T16:10:00;34.2;;;12.8;;
69706;SDS011;56975;55.726;37.566;2024-01-30T16:15:00;25.6;;;10.8;;
69706;SDS011;56975;55.726;37.566;2024-01-30T16:20:00;25.6;;;12.1;;
69706;SDS011;56975;55.726;37.566;2024-01-30T16:25:00;24.6;;;11.6;;
69706;SDS011;56975;55.726;37.566;2024-01-30T16:30:00;19.0;;;9.4;;
69706;SDS011;56975;55.726;37.566;2024-01-30T16:35:00;27.4;;;12.8;;
69706;SDS011;56975;55.726;37.566;2024-01-30T16:40:00;25.1;;;10.8;;
69706;SDS011;56975;55.726;37.566;2024-01-30T16:45:00;28.5;;;13.2;;
69706;SDS011;56975;55.726;37.566;2024-01-30T16:50:00;30.2;;;12.9;;
69706;SDS011;56975;55.726;37.566;2024-01-30T16:55:00;25.4;;;11.4;;
69706;SDS011;56975;55.726;37.566;2024-01-30T17:35:00;26.9;;;11.9;;
69706;SDS011;56975;55.726;37.566;2024-01-30T17:45:00;24.5;;;11.1;;
69706;SDS011;56975;55.726;37.566;2024-01-30T17:50:00;31.5;;;12.5;;
69706;SDS011;56975;55.726;37.566;2024-01-30T17:55:00;22.3;;;11.3;;
69706;SDS011;56975;55.726;37.566;2024-01-30T18:20:00;37.4;;;14.2;;
69706;SDS011;56975;55.726;37.566;2024-01-30T18:25:00;25.5;;;12.0;;
69706;SDS011;56975;55.726;37.566;2024-01-30T18:35:00;26.7;;;12.6;;
69706;SDS011;56975;55.726;37.566;2024-01-30T18:40:00;31.4;;;13.6;;
69706;SDS011;56975;55.726;37.566;2024-01-30T19:05:00;33.3;;;14.7;;
69706;SDS011;56975;55.726;37.566;2024-01-30T19:10:00;28.4;;;13.8;;
69706;SDS011;56975;55.726;37.566;2024-01-30T19:15:00;36.5;;;13.6;;
69706;SDS011;56975;55.726;37.566;2024-01-30T19:20:00;28.9;;;12.5;;
69706;SDS011;56975;55.726;37.566;2024-01-30T19:25:00;31.4;;;14.1;;
69706;SDS011;56975;55.726;37.566;2024-01-30T19:30:00;26.0;;;11.3;;
69706;SDS011;56975;55.726;37.566;2024-01-30T19:35:00;36.2;;;15.5;;
69706;SDS011;56975;55.726;37.566;2024-01-30T19:45:01;24.6;;;12.2;;
69706;SDS011;56975;55.726;37.566;2024-01-30T19:50:00;27.0;;;11.8;;
69706;SDS011;56975;55.726;37.566;2024-01-30T19:55:00;30.8;;;14.0;;
69706;SDS011;56975;55.726;37.566;2024-01-30T20:00:00;34.1;;;14.5;;
69706;SDS011;56975;55.726;37.566;2024-01-30T20:05:00;36.0;;;14.6;;
69706;SDS011;56975;55.726;37.566;2024-01-30T20:10:00;30.5;;;13.2;;
69706;SDS011;56975;55.726;37.566;2024-01-30T20:20:00;22.1;;;9.5;;
69706;SDS011;56975;55.726;37.566;2024-01-30T20:25:00;27.2;;;11.6;;
69706;SDS011;56975;55.726;37.566;2024-01-30T20:30:00;27.2;;;12.5;;
69706;SDS011;56975;55.726;37.566;2024-01-30T20:45:01;34.6;;;14.8;;
69706;SDS011;56975;55.726;37.566;2024-01-30T20:50:00;34.8;;;15.0;;
69706;SDS011;56975;55.726;37.566;2024-01-30T20:55:00;34.9;;;15.2;;
69706;SDS011;56975;55.726;37.566;2024-01-30T21:00:00;39.0;;;17.3;;
69706;SDS011;56975;55.726;37.566;2024-01-30T21:05:00;29.5;;;12.9;;
69706;SDS011;56975;55.726;37.566;2024-01-30T21:20:00;28.9;;;13.6;;
69706;SDS011;56975;55.726;37.566;2024-01-30T21:30:00;36.0;;;15.5;;
69706;SDS011;56975;55.726;37.566;2024-01-30T21:35:00;40.8;;;15.3;;
69706;SDS011;56975;55.726;37.566;2024-01-30T21:40:00;36.6;;;14.9;;
69706;SDS011;56975;55.726;37.566;2024-01-30T21:45:00;44.2;;;18.0;;
69706;SDS011;56975;55.726;37.566;2024-01-30T21:50:00;38.7;;;16.3;;
69706;SDS011;56975;55.726;37.566;2024-01-30T21:55:00;30.7;;;14.6;;
69706;SDS011;56975;55.726;37.566;2024-01-30T22:00:00;41.0;;;17.8;;
69706;SDS011;56975;55.726;37.566;2024-01-30T22:05:00;35.9;;;15.9;;
69706;SDS011;56975;55.726;37.566;2024-01-30T22:10:00;41.3;;;16.7;;
69706;SDS011;56975;55.726;37.566;2024-01-30T22:15:00;36.7;;;15.3;;
69706;SDS011;56975;55.726;37.566;2024-01-30T22:20:00;35.4;;;15.3;;
69706;SDS011;56975;55.726;37.566;2024-01-30T22:25:00;34.7;;;15.6;;
69706;SDS011;56975;55.726;37.566;2024-01-30T22:30:00;38.2;;;16.8;;
69706;SDS011;56975;55.726;37.566;2024-01-30T22:40:00;37.8;;;16.2;;
69706;SDS011;56975;55.726;37.566;2024-01-30T22:55:00;37.8;;;16.4;;
69706;SDS011;56975;55.726;37.566;2024-01-30T23:05:00;40.3;;;17.3;;
69706;SDS011;56975;55.726;37.566;2024-01-30T23:10:00;37.8;;;15.7;;
69706;SDS011;56975;55.726;37.566;2024-01-30T23:20:00;39.0;;;17.6;;
69706;SDS011;56975;55.726;37.566;2024-01-30T23:25:00;38.3;;;16.6;;
69706;SDS011;56975;55.726;37.566;2024-01-30T23:35:00;36.2;;;16.0;;
69706;SDS011;56975;55.726;37.566;2024-01-30T23:40:00;36.3;;;16.6;;
69706;SDS011;56975;55.726;37.566;2024-01-30T23:50:00;40.1;;;16.3;;
69706;SDS011;56975;55.726;37.566;2024-01-30T23:55:00;36.1;;;17.1;;
